Time;durP1;ratioP1;P1;durP2;ratioP2;P2;SDS_P1;SDS_P2;PMS_P1;PMS_P2;Temp;Humidity;BMP_temperature;BMP_pressure;BME280_temperature;BME280_humidity;BME280_pressure;Samples;Min_cycle;Max_cycle;Signal;HPM_P1;HPM_P2
2022/12/27 00:00:56;;;;;;;;;1.00;1.00;;;;;20.26;62.03;100481.85;105336;1291;18481;-61
2022/12/27 00:03:28;;;;;;;;;2.00;2.00;;;;;20.25;62.01;100482.50;105366;1293;20857;-64
2022/12/27 00:05:56;;;;;;;;;1.00;1.00;;;;;20.25;61.98;100490.87;105389;1300;19886;-62
2022/12/27 00:08:23;;;;;;;;;1.00;1.00;;;;;20.25;61.95;100494.38;105383;1278;19952;-60
2022/12/27 00:10:51;;;;;;;;;1.00;1.00;;;;;20.24;61.69;100493.74;105300;1291;19390;-60
2022/12/27 00:13:18;;;;;;;;;2.00;1.00;;;;;20.24;61.69;100499.18;105340;1299;18555;-60
2022/12/27 00:15:46;;;;;;;;;1.00;1.00;;;;;20.24;61.68;100499.55;105429;1300;18653;-62
2022/12/27 00:18:13;;;;;;;;;2.00;1.00;;;;;20.23;61.72;100513.79;105405;1282;19479;-61
2022/12/27 00:20:41;;;;;;;;;1.00;1.00;;;;;20.23;61.83;100516.16;105320;1297;19501;-63
2022/12/27 00:23:08;;;;;;;;;1.00;1.00;;;;;20.23;61.65;100518.52;105287;1292;21158;-62
2022/12/27 00:25:36;;;;;;;;;1.00;1.00;;;;;20.23;61.66;100515.15;105317;1300;21023;-62
2022/12/27 00:28:03;;;;;;;;;1.00;1.00;;;;;20.23;61.36;100512.17;105355;1292;20165;-60
2022/12/27 00:30:31;;;;;;;;;1.00;1.00;;;;;20.23;61.43;100516.54;105379;1304;18847;-62
2022/12/27 00:32:58;;;;;;;;;1.00;1.00;;;;;20.23;61.55;100524.70;105353;1278;20604;-59
2022/12/27 00:35:25;;;;;;;;;1.00;1.00;;;;;20.22;61.42;100519.04;105356;1283;19948;-60
2022/12/27 00:37:53;;;;;;;;;1.00;1.00;;;;;20.21;61.51;100510.55;105429;1291;20078;-60
2022/12/27 00:40:20;;;;;;;;;2.00;2.00;;;;;20.22;61.38;100517.23;105424;1300;20692;-59
2022/12/27 00:42:48;;;;;;;;;1.00;1.00;;;;;20.22;61.56;100528.26;105445;1290;18467;-60
2022/12/27 00:45:15;;;;;;;;;1.00;1.00;;;;;20.21;61.40;100531.31;105437;1300;18630;-61
2022/12/27 00:47:43;;;;;;;;;1.00;1.00;;;;;20.21;61.28;100539.09;105405;1300;20964;-60
2022/12/27 00:50:10;;;;;;;;;1.00;1.00;;;;;20.20;61.03;100538.62;105298;1285;19124;-63
2022/12/27 00:52:38;;;;;;;;;1.00;1.00;;;;;20.20;61.18;100533.80;105370;1299;18536;-59
2022/12/27 00:55:05;;;;;;;;;1.00;1.00;;;;;20.20;61.10;100533.38;105399;1300;19162;-61
2022/12/27 00:57:33;;;;;;;;;1.00;1.00;;;;;20.20;61.12;100549.51;105387;1284;23552;-61
2022/12/27 01:00:00;;;;;;;;;1.00;1.00;;;;;20.20;61.17;100558.59;105351;1300;18496;-62
2022/12/27 01:02:28;;;;;;;;;1.00;1.00;;;;;20.21;61.29;100558.02;105379;1299;19572;-61
2022/12/27 01:04:56;;;;;;;;;1.00;1.00;;;;;20.21;61.29;100567.23;105354;1294;18930;-61
2022/12/27 01:07:23;;;;;;;;;1.00;1.00;;;;;20.20;61.16;100581.48;105351;1283;18519;-62
2022/12/27 01:09:51;;;;;;;;;1.00;1.00;;;;;20.20;60.97;100591.28;105375;1299;19437;-62
2022/12/27 01:12:18;;;;;;;;;1.00;1.00;;;;;20.20;61.00;100592.88;105399;1298;19585;-61
2022/12/27 01:14:46;;;;;;;;;1.00;1.00;;;;;20.19;61.00;100587.03;105323;1304;18495;-63
2022/12/27 01:17:13;;;;;;;;;1.00;1.00;;;;;20.19;61.19;100585.81;105378;1283;21981;-62
2022/12/27 01:19:40;;;;;;;;;1.00;1.00;;;;;20.19;61.19;100588.13;105400;1278;18342;-60
2022/12/27 01:22:08;;;;;;;;;1.00;1.00;;;;;20.19;60.93;100595.78;105405;1300;18586;-60
2022/12/27 01:24:35;;;;;;;;;1.00;1.00;;;;;20.19;61.04;100606.45;105376;1306;19310;-62
2022/12/27 01:27:03;;;;;;;;;1.00;1.00;;;;;20.19;60.81;100608.05;105314;1293;19865;-62
2022/12/27 01:29:30;;;;;;;;;1.00;1.00;;;;;20.19;60.98;100608.67;105279;1284;20564;-62
2022/12/27 01:31:57;;;;;;;;;1.00;1.00;;;;;20.19;60.85;100613.73;105278;1300;20715;-61
2022/12/27 01:34:25;;;;;;;;;1.00;1.00;;;;;20.19;60.82;100620.48;105327;1291;19619;-59
2022/12/27 01:36:52;;;;;;;;;1.00;1.00;;;;;20.19;60.83;100624.29;105353;1300;19939;-60
2022/12/27 01:39:20;;;;;;;;;1.00;1.00;;;;;20.19;60.92;100625.55;105425;1297;20820;-59
2022/12/27 01:44:32;;;;;;;;;1.00;1.00;;;;;20.18;60.85;100628.92;105371;1300;20006;-60
2022/12/27 01:47:00;;;;;;;;;1.00;1.00;;;;;20.16;60.93;100625.45;105378;1283;22199;-62
2022/12/27 01:49:27;;;;;;;;;1.00;1.00;;;;;20.16;60.75;100622.19;105323;1300;18411;-61
2022/12/27 01:51:55;;;;;;;;;1.00;1.00;;;;;20.16;60.90;100618.24;105247;1284;18905;-62
2022/12/27 01:54:22;;;;;;;;;1.00;1.00;;;;;20.16;60.97;100617.90;105350;1303;19273;-61
2022/12/27 01:56:50;;;;;;;;;1.00;1.00;;;;;20.16;60.99;100616.94;105387;1300;19518;-60
2022/12/27 01:59:17;;;;;;;;;;;;;;;20.16;60.91;100615.69;105295;1298;19965;-60
2022/12/27 02:01:45;;;;;;;;;1.00;1.00;;;;;20.16;60.81;100620.73;105308;1300;19354;-61
2022/12/27 02:04:12;;;;;;;;;1.00;1.00;;;;;20.14;61.15;100619.54;105379;1285;20514;-62
2022/12/27 02:06:39;;;;;;;;;1.00;1.00;;;;;20.15;60.83;100621.46;105366;1285;18462;-62
2022/12/27 02:09:07;;;;;;;;;2.00;2.00;;;;;20.15;60.79;100624.70;105339;1287;19824;-62
2022/12/27 02:11:54;;;;;;;;;1.00;1.00;;;;;20.15;60.63;100631.10;105313;1292;19873;-61
2022/12/27 02:14:22;;;;;;;;;1.00;1.00;;;;;20.16;60.85;100634.60;105339;1283;20265;-62
2022/12/27 02:16:50;;;;;;;;;1.00;1.00;;;;;20.15;60.67;100629.09;105237;1283;21313;-61
2022/12/27 02:19:17;;;;;;;;;1.00;1.00;;;;;20.14;61.01;100632.42;105287;1300;18871;-62
2022/12/27 02:21:44;;;;;;;;;1.00;1.00;;;;;20.14;60.86;100627.57;105390;1292;22608;-60
2022/12/27 02:24:12;;;;;;;;;1.00;1.00;;;;;20.14;60.84;100623.34;105371;1300;20802;-63
2022/12/27 02:26:40;;;;;;;;;1.00;1.00;;;;;20.15;60.79;100617.42;105422;1300;19637;-63
2022/12/27 02:29:07;;;;;;;;;1.00;1.00;;;;;20.15;60.76;100621.43;105332;1292;20156;-60
2022/12/27 02:31:35;;;;;;;;;1.00;1.00;;;;;20.15;60.90;100626.75;105356;1291;19761;-59
2022/12/27 02:34:02;;;;;;;;;1.00;1.00;;;;;20.14;60.68;100631.75;105372;1290;19673;-61
2022/12/27 02:36:29;;;;;;;;;1.00;1.00;;;;;20.13;60.75;100638.70;105342;1292;18494;-62
2022/12/27 02:38:57;;;;;;;;;1.00;1.00;;;;;20.14;60.78;100638.45;105376;1303;19298;-60
2022/12/27 02:55:10;;;;;;;;;1.00;1.00;;;;;20.11;60.55;100660.72;105389;1300;20976;-62
2022/12/27 02:57:37;;;;;;;;;1.00;1.00;;;;;20.12;60.52;100663.20;105274;1301;18411;-57
2022/12/27 03:05:40;;;;;;;;;1.00;1.00;;;;;20.11;60.44;100673.06;105212;1298;20909;-62
2022/12/27 03:08:08;;;;;;;;;;;;;;;20.11;60.58;100672.38;105414;1300;18944;-63
2022/12/27 03:16:05;;;;;;;;;1.00;1.00;;;;;20.11;60.47;100680.65;105333;1299;23461;-61
2022/12/27 03:18:33;;;;;;;;;1.00;1.00;;;;;20.10;60.48;100679.67;105302;1299;21012;-63
2022/12/27 03:26:30;;;;;;;;;1.00;1.00;;;;;20.10;60.32;100689.69;105348;1298;19512;-61
2022/12/27 03:34:37;;;;;;;;;1.00;1.00;;;;;20.10;60.50;100708.33;105333;1299;23308;-60
2022/12/27 03:39:49;;;;;;;;;1.00;1.00;;;;;20.09;60.33;100713.93;105304;1300;18730;-63
2022/12/27 03:45:02;;;;;;;;;1.00;1.00;;;;;20.09;60.60;100721.25;105312;1300;18372;-62
2022/12/27 03:47:30;;;;;;;;;1.00;1.00;;;;;20.09;60.38;100725.58;105325;1291;20380;-60
2022/12/27 03:49:57;;;;;;;;;1.00;1.00;;;;;20.09;60.45;100732.48;105352;1299;19318;-61
2022/12/27 03:52:24;;;;;;;;;1.00;1.00;;;;;20.09;60.48;100739.68;105320;1282;22586;-62
2022/12/27 03:54:52;;;;;;;;;1.00;1.00;;;;;20.08;60.41;100741.17;105354;1300;18641;-63
2022/12/27 03:57:19;;;;;;;;;1.00;1.00;;;;;20.08;60.32;100741.13;105362;1300;19650;-64
2022/12/27 03:59:47;;;;;;;;;1.00;1.00;;;;;20.08;60.63;100747.23;105435;1300;24320;-62
2022/12/27 04:02:14;;;;;;;;;1.00;1.00;;;;;20.08;60.23;100745.98;105393;1303;18616;-62
2022/12/27 04:04:42;;;;;;;;;1.00;1.00;;;;;20.08;60.30;100746.39;105360;1291;23438;-61
2022/12/27 04:07:09;;;;;;;;;1.00;1.00;;;;;20.07;60.17;100753.00;105428;1300;18714;-63
2022/12/27 04:34:42;;;;;;;;;1.00;1.00;;;;;20.04;60.06;100785.02;105360;1292;19210;-61
2022/12/27 04:37:09;;;;;;;;;1.00;1.00;;;;;20.04;60.08;100793.73;105379;1284;20767;-57
2022/12/27 04:39:36;;;;;;;;;1.00;1.00;;;;;20.04;59.98;100796.82;105268;1300;19093;-62
2022/12/27 04:55:49;;;;;;;;;;;;;;;20.03;60.01;100810.56;105338;1306;18771;-61
2022/12/27 04:58:17;;;;;;;;;1.00;1.00;;;;;20.04;60.06;100811.90;105323;1300;19622;-61
2022/12/27 05:03:29;;;;;;;;;1.00;1.00;;;;;20.03;59.88;100815.27;105406;1300;18878;-63
2022/12/27 05:05:56;;;;;;;;;1.00;1.00;;;;;20.03;60.05;100813.86;105323;1284;18779;-62
2022/12/27 05:14:00;;;;;;;;;1.00;1.00;;;;;20.02;59.82;100821.90;105387;1300;20157;-61
2022/12/27 05:16:28;;;;;;;;;1.00;1.00;;;;;20.02;59.79;100824.98;105394;1298;20763;-61
2022/12/27 05:18:55;;;;;;;;;1.00;1.00;;;;;20.02;59.90;100825.36;105278;1300;19558;-61
2022/12/27 05:21:23;;;;;;;;;1.00;1.00;;;;;20.02;59.95;100834.61;105316;1295;20120;-58
2022/12/27 05:26:36;;;;;;;;;1.00;1.00;;;;;20.00;59.74;100835.34;105330;1284;23405;-61
2022/12/27 05:29:03;;;;;;;;;1.00;1.00;;;;;20.00;59.88;100844.89;105217;1284;162173;-59
2022/12/27 05:31:31;;;;;;;;;1.00;1.00;;;;;19.99;59.78;100846.02;105344;1300;19307;-62
2022/12/27 05:33:58;;;;;;;;;;;;;;;20.00;59.94;100845.00;105402;1278;22030;-60
2022/12/27 05:36:25;;;;;;;;;1.00;1.00;;;;;19.99;59.95;100840.65;105345;1299;18325;-60
2022/12/27 05:38:53;;;;;;;;;1.00;1.00;;;;;20.00;59.95;100845.13;105421;1299;22465;-61
2022/12/27 05:41:20;;;;;;;;;1.00;1.00;;;;;20.00;59.69;100850.06;105400;1300;19989;-61
2022/12/27 05:43:48;;;;;;;;;1.00;1.00;;;;;20.01;59.92;100857.55;105426;1301;18733;-62
2022/12/27 05:46:15;;;;;;;;;1.00;1.00;;;;;19.99;59.92;100858.67;105377;1285;19959;-61
2022/12/27 05:48:43;;;;;;;;;1.00;1.00;;;;;19.99;59.63;100860.61;105379;1285;18448;-62
2022/12/27 05:51:10;;;;;;;;;1.00;1.00;;;;;19.99;59.83;100855.20;105367;1300;20006;-62
2022/12/27 05:53:37;;;;;;;;;1.00;1.00;;;;;19.99;59.84;100857.16;105291;1300;20603;-60
2022/12/27 05:56:05;;;;;;;;;1.00;1.00;;;;;20.00;59.88;100855.51;105316;1297;22707;-60
2022/12/27 05:58:32;;;;;;;;;1.00;1.00;;;;;20.00;59.66;100862.78;105403;1292;18683;-61
2022/12/27 06:01:00;;;;;;;;;1.00;1.00;;;;;19.98;59.55;100862.91;105354;1293;22251;-61
2022/12/27 06:03:27;;;;;;;;;1.00;1.00;;;;;19.99;59.87;100872.07;105330;1300;20100;-60
2022/12/27 06:05:55;;;;;;;;;1.00;1.00;;;;;19.98;59.76;100870.53;105428;1300;19991;-62
2022/12/27 06:08:22;;;;;;;;;1.00;1.00;;;;;19.99;59.68;100872.27;105417;1291;19510;-60
2022/12/27 06:10:52;;;;;;;;;1.00;1.00;;;;;19.98;59.97;100871.69;105366;1300;18559;-62
2022/12/27 06:13:20;;;;;;;;;1.00;1.00;;;;;19.98;59.85;100879.30;105336;1286;18614;-62
2022/12/27 06:15:47;;;;;;;;;1.00;1.00;;;;;19.98;59.70;100882.89;105291;1303;20743;-61
2022/12/27 06:18:15;;;;;;;;;1.00;1.00;;;;;19.97;59.76;100881.00;105283;1299;19884;-61
2022/12/27 06:20:42;;;;;;;;;1.00;1.00;;;;;19.97;59.71;100881.20;105399;1292;22862;-62
2022/12/27 06:23:09;;;;;;;;;1.00;1.00;;;;;19.97;59.59;100885.21;105433;1300;20756;-60
2022/12/27 06:25:37;;;;;;;;;1.00;1.00;;;;;19.97;59.81;100886.51;105376;1299;18293;-61
2022/12/27 06:28:04;;;;;;;;;1.00;1.00;;;;;19.98;59.64;100892.56;105325;1299;18799;-61
2022/12/27 06:30:32;;;;;;;;;1.00;1.00;;;;;19.97;59.74;100895.71;105276;1291;20829;-61
2022/12/27 06:32:59;;;;;;;;;1.00;1.00;;;;;19.97;59.62;100900.41;105280;1300;18731;-61
2022/12/27 06:35:27;;;;;;;;;1.00;1.00;;;;;19.97;59.59;100902.59;105400;1292;23494;-63
2022/12/27 06:37:54;;;;;;;;;1.00;1.00;;;;;19.97;59.54;100903.54;105361;1300;19308;-61
2022/12/27 06:40:22;;;;;;;;;1.00;1.00;;;;;19.96;59.45;100905.71;105347;1294;18500;-62
2022/12/27 06:42:49;;;;;;;;;1.00;1.00;;;;;19.97;59.73;100911.33;105354;1300;18529;-61
2022/12/27 06:45:17;;;;;;;;;1.00;1.00;;;;;19.97;59.64;100921.48;105296;1300;22776;-59
2022/12/27 06:47:44;;;;;;;;;1.00;1.00;;;;;19.96;59.34;100924.45;105261;1300;18413;-61
2022/12/27 06:50:12;;;;;;;;;1.00;1.00;;;;;19.97;59.54;100927.83;105242;1300;22201;-61
2022/12/27 06:52:39;;;;;;;;;1.00;1.00;;;;;19.97;59.47;100932.92;105309;1284;22240;-65
2022/12/27 06:55:07;;;;;;;;;1.00;1.00;;;;;19.96;59.34;100937.17;105359;1300;19625;-60
2022/12/27 06:57:34;;;;;;;;;1.00;1.00;;;;;19.96;59.59;100942.98;105340;1300;20149;-60
2022/12/27 07:00:01;;;;;;;;;1.00;1.00;;;;;19.96;59.40;100950.23;105441;1301;19337;-62
2022/12/27 07:02:29;;;;;;;;;1.00;1.00;;;;;19.96;59.31;100953.44;105412;1284;19628;-62
2022/12/27 07:04:56;;;;;;;;;1.00;1.00;;;;;19.95;59.40;100949.25;105398;1300;18477;-60
2022/12/27 07:07:24;;;;;;;;;1.00;1.00;;;;;19.96;59.49;100949.52;105358;1283;20776;-60
2022/12/27 07:09:51;;;;;;;;;1.00;1.00;;;;;19.99;59.75;100951.33;105408;1282;21906;-60
2022/12/27 07:12:19;;;;;;;;;1.00;1.00;;;;;20.02;59.70;100945.42;105345;1300;18582;-62
2022/12/27 07:14:46;;;;;;;;;1.00;1.00;;;;;20.03;59.62;100947.45;105326;1300;19203;-63
2022/12/27 07:17:14;;;;;;;;;1.00;1.00;;;;;20.02;59.66;100955.38;105379;1285;18819;-62
2022/12/27 07:19:41;;;;;;;;;1.00;1.00;;;;;20.03;59.93;100960.41;105336;1300;18947;-62
2022/12/27 07:22:09;;;;;;;;;1.00;1.00;;;;;20.02;59.99;100959.98;105356;1298;19811;-61
2022/12/27 07:24:36;;;;;;;;;1.00;1.00;;;;;20.00;60.03;100961.20;105406;1300;18398;-60
2022/12/27 07:27:04;;;;;;;;;1.00;1.00;;;;;20.00;60.08;100960.32;105451;1291;22246;-61
2022/12/27 07:29:31;;;;;;;;;1.00;1.00;;;;;19.99;59.93;100966.41;105384;1285;22958;-63
2022/12/27 07:31:59;;;;;;;;;1.00;1.00;;;;;19.99;59.84;100965.55;105338;1300;21649;-61
2022/12/27 07:34:26;;;;;;;;;1.00;1.00;;;;;19.97;60.07;100971.83;105328;1299;20017;-63
2022/12/27 07:36:53;;;;;;;;;1.00;1.00;;;;;19.98;60.04;100981.91;105419;1283;22154;-61
2022/12/27 07:39:21;;;;;;;;;1.00;1.00;;;;;19.97;59.81;100988.16;105453;1300;19671;-62
2022/12/27 07:41:48;;;;;;;;;1.00;1.00;;;;;19.97;60.12;100996.55;105300;1299;20184;-62
2022/12/27 07:44:16;;;;;;;;;1.00;1.00;;;;;19.97;60.11;100998.30;105389;1298;19487;-61
2022/12/27 07:46:44;;;;;;;;;1.00;1.00;;;;;19.97;60.21;100998.17;105375;1278;20694;-61
2022/12/27 07:49:12;;;;;;;;;1.00;1.00;;;;;19.97;59.88;101001.83;105389;1291;18674;-60
2022/12/27 07:51:39;;;;;;;;;1.00;1.00;;;;;19.96;60.06;101004.78;105378;1299;20884;-59
2022/12/27 07:54:06;;;;;;;;;1.00;1.00;;;;;19.96;60.14;101001.14;105357;1300;18422;-62
2022/12/27 07:56:34;;;;;;;;;2.00;1.00;;;;;19.96;59.78;101004.68;105248;1301;18535;-62
2022/12/27 07:59:01;;;;;;;;;1.00;1.00;;;;;19.96;59.85;101007.57;105351;1285;20034;-62
2022/12/27 08:01:29;;;;;;;;;1.50;1.00;;;;;19.97;59.90;101014.52;105405;1300;19614;-60
2022/12/27 08:03:56;;;;;;;;;1.00;1.00;;;;;19.96;59.89;101014.82;105449;1300;20276;-63
2022/12/27 08:06:24;;;;;;;;;1.00;1.00;;;;;19.96;59.85;101012.05;105435;1290;21474;-61
2022/12/27 08:08:51;;;;;;;;;1.00;1.00;;;;;19.96;59.71;101010.46;105372;1300;19778;-62
2022/12/27 08:11:19;;;;;;;;;1.50;1.50;;;;;19.97;59.75;101011.21;105359;1283;18482;-62
2022/12/27 08:13:46;;;;;;;;;1.00;1.00;;;;;19.98;59.82;101017.83;105400;1283;19650;-62
2022/12/27 08:16:14;;;;;;;;;1.00;1.00;;;;;19.99;59.58;101017.35;105355;1283;19356;-61
2022/12/27 08:18:41;;;;;;;;;2.00;2.00;;;;;19.99;59.86;101014.27;105363;1283;18498;-63
2022/12/27 08:21:09;;;;;;;;;1.00;1.00;;;;;19.99;59.98;101017.05;105433;1300;22237;-61
2022/12/27 08:23:36;;;;;;;;;2.00;1.00;;;;;19.99;59.93;101018.98;105367;1285;19607;-63
2022/12/27 08:26:03;;;;;;;;;2.00;2.00;;;;;20.05;59.85;101024.60;105339;1286;22324;-62
2022/12/27 08:28:31;;;;;;;;;1.00;1.00;;;;;20.07;59.71;101020.50;105364;1299;20944;-62
2022/12/27 08:30:59;;;;;;;;;2.00;2.00;;;;;20.10;60.01;101024.19;105388;1284;18553;-59
2022/12/27 08:33:26;;;;;;;;;2.00;2.00;;;;;20.15;60.46;101030.32;105372;1291;20013;-60
2022/12/27 08:35:55;;;;;;;;;6.00;6.00;;;;;20.21;60.57;101035.38;105306;1285;19665;-62
2022/12/27 08:38:23;;;;;;;;;12.00;8.00;;;;;20.23;60.75;101033.44;105325;1282;22923;-61
2022/12/27 08:40:51;;;;;;;;;5.00;5.00;;;;;20.18;59.96;101037.45;105341;1300;20011;-63
2022/12/27 08:43:18;;;;;;;;;11.00;10.00;;;;;20.12;59.08;101039.94;105346;1283;19520;-62
2022/12/27 08:45:46;;;;;;;;;17.00;15.00;;;;;20.16;58.83;101036.61;105337;1290;19559;-61
2022/12/27 08:48:13;;;;;;;;;;;;;;;20.20;58.21;101037.41;105360;1284;18597;-63
2022/12/27 08:50:40;;;;;;;;;20.00;17.00;;;;;20.22;58.00;101038.27;105311;1285;22388;-63
2022/12/27 08:53:08;;;;;;;;;20.00;18.00;;;;;20.27;58.11;101045.05;105287;1278;19688;-59
2022/12/27 08:55:35;;;;;;;;;21.00;18.00;;;;;20.32;58.16;101050.27;105326;1283;20188;-62
2022/12/27 08:58:03;;;;;;;;;18.00;17.00;;;;;20.35;57.94;101047.80;105333;1283;19368;-60
2022/12/27 09:00:30;;;;;;;;;14.50;14.50;;;;;20.35;57.55;101051.23;105316;1298;22515;-62
2022/12/27 09:02:58;;;;;;;;;19.00;17.00;;;;;20.31;57.67;101056.73;105352;1290;20296;-61
2022/12/27 09:05:25;;;;;;;;;14.00;13.00;;;;;20.33;57.24;101065.79;105338;1275;20603;-61
2022/12/27 09:07:53;;;;;;;;;14.00;11.00;;;;;20.32;57.33;101066.42;105365;1300;18515;-60
2022/12/27 09:10:20;;;;;;;;;12.00;11.00;;;;;20.31;57.30;101067.83;105370;1277;22132;-62
2022/12/27 09:12:47;;;;;;;;;11.50;11.00;;;;;20.30;57.23;101067.02;105379;1299;19294;-60
2022/12/27 09:15:15;;;;;;;;;10.50;10.00;;;;;20.25;57.00;101061.89;105429;1301;21939;-61
2022/12/27 09:17:42;;;;;;;;;8.00;8.00;;;;;20.21;57.28;101055.85;105388;1300;18625;-60
2022/12/27 09:20:11;;;;;;;;;8.00;8.00;;;;;20.19;56.99;101048.64;105391;1283;21797;-61
2022/12/27 09:22:39;;;;;;;;;;;;;;;20.19;57.05;101060.58;105311;1290;18386;-63
2022/12/27 09:25:06;;;;;;;;;8.00;7.50;;;;;20.22;57.33;101059.56;105348;1291;22898;-62
2022/12/27 09:27:33;;;;;;;;;11.00;11.00;;;;;20.23;56.99;101063.63;105364;1284;22241;-62
2022/12/27 09:30:01;;;;;;;;;8.00;7.50;;;;;20.22;57.24;101065.66;105329;1278;18445;-62
2022/12/27 09:32:28;;;;;;;;;7.00;7.00;;;;;20.21;57.00;101073.48;105412;1282;19914;-63
2022/12/27 09:34:56;;;;;;;;;8.00;7.00;;;;;20.18;56.89;101070.85;105377;1285;23006;-61
2022/12/27 09:37:23;;;;;;;;;5.00;5.00;;;;;20.18;57.02;101078.70;105379;1298;19672;-62
2022/12/27 09:39:51;;;;;;;;;6.00;6.00;;;;;20.15;57.02;101073.73;105246;1294;22849;-63
2022/12/27 09:42:19;;;;;;;;;5.00;5.00;;;;;20.14;56.98;101072.94;105460;1290;19245;-60
2022/12/27 09:44:46;;;;;;;;;5.00;4.00;;;;;20.12;57.17;101074.03;105390;1285;20028;-61
2022/12/27 09:47:13;;;;;;;;;7.00;5.00;;;;;20.15;57.31;101071.52;105339;1277;20420;-61
2022/12/27 09:49:41;;;;;;;;;5.00;5.00;;;;;20.20;57.22;101068.67;105325;1285;21239;-61
2022/12/27 09:52:08;;;;;;;;;6.00;6.00;;;;;20.25;57.26;101068.86;105330;1278;22434;-63
2022/12/27 09:54:36;;;;;;;;;5.00;5.00;;;;;20.21;57.33;101069.11;105315;1297;19015;-60
2022/12/27 09:57:03;;;;;;;;;5.00;5.00;;;;;20.19;57.50;101064.80;105352;1285;21096;-62
2022/12/27 09:59:30;;;;;;;;;;;;;;;20.16;57.48;101065.06;105255;1300;18636;-61
2022/12/27 10:01:58;;;;;;;;;4.00;4.00;;;;;20.15;57.54;101066.85;105218;1291;19857;-62
2022/12/27 10:04:26;;;;;;;;;4.00;4.00;;;;;20.14;57.57;101070.42;105228;1299;21059;-61
2022/12/27 10:06:53;;;;;;;;;5.00;3.00;;;;;20.11;57.89;101076.13;105362;1278;22253;-60
2022/12/27 10:09:21;;;;;;;;;4.00;4.00;;;;;20.12;57.79;101079.58;105289;1300;19891;-64
2022/12/27 10:11:48;;;;;;;;;4.00;4.00;;;;;20.10;57.82;101084.94;105368;1283;21166;-62
2022/12/27 10:14:16;;;;;;;;;2.00;2.00;;;;;20.08;57.66;101081.21;105384;1300;23071;-63
2022/12/27 10:16:43;;;;;;;;;2.00;2.00;;;;;20.09;57.83;101079.45;105313;1291;19085;-61
2022/12/27 10:19:10;;;;;;;;;2.00;2.00;;;;;20.09;57.71;101075.30;105242;1284;21810;-61
2022/12/27 10:21:38;;;;;;;;;2.00;2.00;;;;;20.07;58.01;101073.29;105286;1298;19653;-62
2022/12/27 10:24:05;;;;;;;;;2.00;2.00;;;;;20.05;57.98;101078.43;105384;1300;18710;-60
2022/12/27 10:26:33;;;;;;;;;2.00;2.00;;;;;20.04;58.00;101072.53;105416;1300;19334;-63
2022/12/27 10:29:00;;;;;;;;;3.50;3.50;;;;;20.06;58.11;101076.59;105415;1292;19863;-63
2022/12/27 10:31:28;;;;;;;;;3.00;2.00;;;;;20.04;58.00;101076.02;105357;1299;21478;-61
2022/12/27 10:33:55;;;;;;;;;2.00;2.00;;;;;20.03;58.10;101076.70;105354;1291;21913;-64
2022/12/27 10:36:22;;;;;;;;;4.00;2.00;;;;;20.03;57.81;101078.10;105326;1300;19586;-62
2022/12/27 10:38:50;;;;;;;;;2.00;2.00;;;;;20.07;57.89;101079.81;105171;1277;20128;-66
2022/12/27 10:41:17;;;;;;;;;2.00;2.00;;;;;20.15;57.74;101084.10;105227;1293;20983;-63
2022/12/27 10:43:45;;;;;;;;;2.00;2.00;;;;;20.16;57.66;101083.95;105266;1277;18923;-60
2022/12/27 10:46:12;;;;;;;;;;;;;;;20.17;57.95;101087.95;105325;1298;18553;-64
2022/12/27 10:48:40;;;;;;;;;2.00;2.00;;;;;20.23;58.44;101091.34;105319;1277;22405;-64
2022/12/27 10:51:07;;;;;;;;;12.00;11.00;;;;;20.26;58.96;101083.36;105178;1285;18443;-63
2022/12/27 10:53:35;;;;;;;;;42.00;40.00;;;;;20.30;58.99;101082.08;105280;1283;20040;-62
2022/12/27 10:56:02;;;;;;;;;;;;;;;20.36;59.10;101084.52;105288;1283;20629;-63
2022/12/27 10:58:30;;;;;;;;;81.00;65.00;;;;;20.39;59.49;101085.88;105363;1278;20060;-65
2022/12/27 11:00:57;;;;;;;;;70.00;58.00;;;;;20.43;60.13;101083.75;105273;1283;21575;-56
2022/12/27 11:03:27;;;;;;;;;70.00;50.50;;;;;20.45;60.07;101089.34;105304;1300;19810;-63
2022/12/27 11:05:54;;;;;;;;;53.00;45.00;;;;;20.46;60.30;101086.19;105345;1300;22076;-61
2022/12/27 11:08:22;;;;;;;;;51.00;44.00;;;;;20.45;60.22;101087.16;105224;1277;19030;-63
2022/12/27 11:10:49;;;;;;;;;44.00;38.00;;;;;20.46;60.22;101088.75;105329;1277;19422;-61
2022/12/27 11:13:16;;;;;;;;;;;;;;;20.44;60.31;101088.33;105316;1277;18574;-64
2022/12/27 11:15:44;;;;;;;;;;;;;;;20.43;60.32;101089.91;105325;1278;18819;-63
2022/12/27 11:18:11;;;;;;;;;26.00;24.50;;;;;20.49;60.21;101089.33;105227;1300;20253;-65
2022/12/27 11:20:39;;;;;;;;;28.00;22.00;;;;;20.52;60.15;101090.20;105294;1285;23610;-64
2022/12/27 11:23:06;;;;;;;;;;;;;;;20.56;59.93;101084.59;105286;1285;22185;-67
2022/12/27 11:25:34;;;;;;;;;20.00;18.50;;;;;20.58;60.03;101085.65;105259;1290;20742;-64
2022/12/27 11:28:01;;;;;;;;;20.00;18.00;;;;;20.52;60.19;101087.34;105141;1284;23129;-68
2022/12/27 11:30:28;;;;;;;;;21.00;18.00;;;;;20.49;60.43;101080.63;105198;1300;18972;-67
2022/12/27 11:32:56;;;;;;;;;63.00;53.00;;;;;20.49;60.68;101086.13;105268;1277;19533;-64
2022/12/27 11:35:23;;;;;;;;;48.00;42.00;;;;;20.50;60.74;101091.31;105163;1288;22145;-64
2022/12/27 11:37:51;;;;;;;;;38.50;37.50;;;;;20.47;61.03;101092.38;105213;1300;20119;-65
2022/12/27 11:40:19;;;;;;;;;31.00;28.00;;;;;20.46;60.86;101094.69;105301;1286;19478;-64
2022/12/27 11:42:46;;;;;;;;;28.00;24.00;;;;;20.45;61.09;101099.67;105200;1285;19295;-67
2022/12/27 11:45:14;;;;;;;;;23.00;19.50;;;;;20.46;60.98;101099.27;105293;1283;18637;-65
2022/12/27 11:47:41;;;;;;;;;18.50;17.50;;;;;20.47;61.05;101100.41;105301;1285;19309;-62
2022/12/27 11:50:09;;;;;;;;;16.00;15.00;;;;;20.48;61.28;101093.77;105328;1285;18590;-62
2022/12/27 11:52:36;;;;;;;;;21.00;17.50;;;;;20.48;61.12;101092.48;105330;1284;18693;-70
2022/12/27 11:55:04;;;;;;;;;17.00;14.00;;;;;20.52;61.39;101097.31;105282;1285;20787;-63
2022/12/27 11:57:31;;;;;;;;;15.00;14.00;;;;;20.53;61.58;101098.08;105310;1283;18752;-64
2022/12/27 11:59:59;;;;;;;;;15.00;14.00;;;;;20.57;61.54;101101.73;105292;1277;20097;-62
2022/12/27 12:02:26;;;;;;;;;12.00;12.00;;;;;20.58;61.39;101104.55;105274;1278;20930;-62
2022/12/27 12:04:53;;;;;;;;;;;;;;;20.58;61.29;101102.54;105299;1290;19983;-60
2022/12/27 12:07:21;;;;;;;;;13.00;12.00;;;;;20.59;61.23;101103.70;105276;1278;19897;-62
2022/12/27 12:09:48;;;;;;;;;9.00;8.00;;;;;20.60;61.38;101098.91;105316;1285;21927;-63
2022/12/27 12:12:16;;;;;;;;;11.00;9.00;;;;;20.59;61.10;101103.90;105378;1300;18930;-65
2022/12/27 12:14:43;;;;;;;;;9.00;8.00;;;;;20.61;61.17;101100.87;105286;1300;18641;-64
2022/12/27 12:17:11;;;;;;;;;7.00;7.00;;;;;20.60;61.15;101105.51;105304;1291;21204;-65
2022/12/27 12:19:38;;;;;;;;;8.00;8.00;;;;;20.60;61.04;101111.70;105304;1285;20649;-62
2022/12/27 12:22:06;;;;;;;;;9.00;9.00;;;;;20.60;61.25;101108.30;105292;1300;18532;-63
2022/12/27 12:24:34;;;;;;;;;7.00;7.00;;;;;20.64;61.16;101111.71;105257;1284;22123;-63
2022/12/27 12:27:01;;;;;;;;;7.00;7.00;;;;;20.63;61.27;101114.46;105316;1284;18790;-64
2022/12/27 12:29:29;;;;;;;;;7.00;7.00;;;;;20.62;61.33;101107.00;105317;1291;18909;-62
2022/12/27 12:31:56;;;;;;;;;7.00;7.00;;;;;20.60;61.24;101105.71;105298;1285;21012;-62
2022/12/27 12:34:24;;;;;;;;;8.00;7.00;;;;;20.62;61.08;101106.39;105275;1291;18347;-62
2022/12/27 12:36:51;;;;;;;;;7.00;7.00;;;;;20.62;61.10;101101.86;105251;1285;22844;-63
2022/12/27 12:39:19;;;;;;;;;;;;;;;20.64;61.03;101104.55;105339;1306;19438;-61
2022/12/27 12:41:47;;;;;;;;;5.00;4.00;;;;;20.65;60.94;101101.16;105342;1300;18402;-62
2022/12/27 12:44:15;;;;;;;;;5.00;5.00;;;;;20.65;60.95;101104.71;105264;1283;18652;-61
2022/12/27 12:46:42;;;;;;;;;5.00;5.00;;;;;20.65;61.00;101109.19;105250;1285;20997;-59
2022/12/27 12:49:10;;;;;;;;;5.00;5.00;;;;;20.67;60.60;101104.46;105334;1284;22744;-59
2022/12/27 12:51:38;;;;;;;;;4.00;4.00;;;;;20.68;60.61;101101.19;105319;1300;18495;-61